sensor_id;sensor_type;location;lat;lon;timestamp;temperature;humidity
32728;DHT22;55292;51.844;19.246;2023-06-05T00:04:05;5.00;99.90
32728;DHT22;55292;51.844;19.246;2023-06-05T00:09:08;2.90;99.90
32728;DHT22;55292;51.844;19.246;2023-06-05T00:14:11;5.10;99.90
32728;DHT22;55292;51.844;19.246;2023-06-05T00:19:13;5.20;99.90
32728;DHT22;55292;51.844;19.246;2023-06-05T00:24:16;4.90;99.90
32728;DHT22;55292;51.844;19.246;2023-06-05T00:29:19;4.90;99.90
32728;DHT22;55292;51.844;19.246;2023-06-05T00:34:22;4.90;99.90
32728;DHT22;55292;51.844;19.246;2023-06-05T00:39:24;4.70;99.90
32728;DHT22;55292;51.844;19.246;2023-06-05T00:44:27;4.50;99.90
32728;DHT22;55292;51.844;19.246;2023-06-05T00:49:30;4.40;99.90
32728;DHT22;55292;51.844;19.246;2023-06-05T00:54:33;4.30;99.90
32728;DHT22;55292;51.844;19.246;2023-06-05T00:59:37;4.20;99.90
32728;DHT22;55292;51.844;19.246;2023-06-05T01:04:40;4.80;99.90
32728;DHT22;55292;51.844;19.246;2023-06-05T01:09:46;4.80;99.90
32728;DHT22;55292;51.844;19.246;2023-06-05T01:14:48;4.40;99.90
32728;DHT22;55292;51.844;19.246;2023-06-05T01:19:51;4.50;99.90
32728;DHT22;55292;51.844;19.246;2023-06-05T01:24:54;4.50;99.90
32728;DHT22;55292;51.844;19.246;2023-06-05T01:30:02;4.20;99.90
32728;DHT22;55292;51.844;19.246;2023-06-05T01:35:11;4.40;99.90
32728;DHT22;55292;51.844;19.246;2023-06-05T01:40:23;4.30;99.90
32728;DHT22;55292;51.844;19.246;2023-06-05T01:45:27;4.00;99.90
32728;DHT22;55292;51.844;19.246;2023-06-05T01:50:33;4.20;99.90
32728;DHT22;55292;51.844;19.246;2023-06-05T01:55:38;4.20;99.90
32728;DHT22;55292;51.844;19.246;2023-06-05T02:00:43;4.20;99.90
32728;DHT22;55292;51.844;19.246;2023-06-05T02:05:47;4.00;99.90
32728;DHT22;55292;51.844;19.246;2023-06-05T02:10:50;4.00;99.90
32728;DHT22;55292;51.844;19.246;2023-06-05T02:15:55;3.90;99.90
32728;DHT22;55292;51.844;19.246;2023-06-05T02:20:59;3.80;99.90
32728;DHT22;55292;51.844;19.246;2023-06-05T02:26:03;4.00;99.90
32728;DHT22;55292;51.844;19.246;2023-06-05T02:31:05;4.10;99.90
32728;DHT22;55292;51.844;19.246;2023-06-05T02:36:08;3.90;99.90
32728;DHT22;55292;51.844;19.246;2023-06-05T02:41:11;3.90;99.90
32728;DHT22;55292;51.844;19.246;2023-06-05T02:46:14;4.10;99.90
32728;DHT22;55292;51.844;19.246;2023-06-05T02:51:19;4.40;99.90
32728;DHT22;55292;51.844;19.246;2023-06-05T02:56:23;5.10;99.90
32728;DHT22;55292;51.844;19.246;2023-06-05T03:01:29;5.30;99.90
32728;DHT22;55292;51.844;19.246;2023-06-05T03:06:41;6.00;99.90
32728;DHT22;55292;51.844;19.246;2023-06-05T03:11:46;7.70;99.90
32728;DHT22;55292;51.844;19.246;2023-06-05T03:16:50;9.40;99.90
32728;DHT22;55292;51.844;19.246;2023-06-05T03:21:53;10.50;99.90
32728;DHT22;55292;51.844;19.246;2023-06-05T03:26:58;12.20;99.90
32728;DHT22;55292;51.844;19.246;2023-06-05T03:32:00;13.40;99.90
32728;DHT22;55292;51.844;19.246;2023-06-05T03:37:05;14.30;99.90
32728;DHT22;55292;51.844;19.246;2023-06-05T03:42:08;15.40;99.90
32728;DHT22;55292;51.844;19.246;2023-06-05T03:47:13;17.40;97.40
32728;DHT22;55292;51.844;19.246;2023-06-05T03:52:18;17.40;97.30
32728;DHT22;55292;51.844;19.246;2023-06-05T03:57:26;18.50;94.70
32728;DHT22;55292;51.844;19.246;2023-06-05T04:02:29;19.70;91.80
32728;DHT22;55292;51.844;19.246;2023-06-05T04:07:32;20.70;88.40
32728;DHT22;55292;51.844;19.246;2023-06-05T04:12:36;21.50;82.00
32728;DHT22;55292;51.844;19.246;2023-06-05T04:17:40;22.10;76.30
32728;DHT22;55292;51.844;19.246;2023-06-05T04:22:45;22.10;74.60
32728;DHT22;55292;51.844;19.246;2023-06-05T04:27:49;23.50;72.30
32728;DHT22;55292;51.844;19.246;2023-06-05T04:32:53;24.60;68.70
32728;DHT22;55292;51.844;19.246;2023-06-05T04:37:59;25.60;65.80
32728;DHT22;55292;51.844;19.246;2023-06-05T04:43:05;25.90;63.80
32728;DHT22;55292;51.844;19.246;2023-06-05T04:48:08;26.00;58.70
32728;DHT22;55292;51.844;19.246;2023-06-05T04:53:11;26.50;55.00
32728;DHT22;55292;51.844;19.246;2023-06-05T04:58:16;27.00;51.70
32728;DHT22;55292;51.844;19.246;2023-06-05T05:03:21;28.00;49.70
32728;DHT22;55292;51.844;19.246;2023-06-05T05:08:24;28.60;50.60
32728;DHT22;55292;51.844;19.246;2023-06-05T05:13:27;29.40;48.00
32728;DHT22;55292;51.844;19.246;2023-06-05T05:18:30;29.20;45.80
32728;DHT22;55292;51.844;19.246;2023-06-05T05:23:33;29.50;44.90
32728;DHT22;55292;51.844;19.246;2023-06-05T05:28:36;29.80;45.20
32728;DHT22;55292;51.844;19.246;2023-06-05T05:33:39;29.70;44.60
32728;DHT22;55292;51.844;19.246;2023-06-05T05:38:42;29.50;44.50
32728;DHT22;55292;51.844;19.246;2023-06-05T05:43:45;30.30;44.30
32728;DHT22;55292;51.844;19.246;2023-06-05T05:48:48;29.80;46.20
32728;DHT22;55292;51.844;19.246;2023-06-05T05:53:50;30.30;44.50
32728;DHT22;55292;51.844;19.246;2023-06-05T05:58:53;30.40;43.90
32728;DHT22;55292;51.844;19.246;2023-06-05T06:03:56;30.30;42.50
32728;DHT22;55292;51.844;19.246;2023-06-05T06:09:01;29.80;44.90
32728;DHT22;55292;51.844;19.246;2023-06-05T06:14:06;26.30;47.60
32728;DHT22;55292;51.844;19.246;2023-06-05T06:19:09;24.10;50.90
32728;DHT22;55292;51.844;19.246;2023-06-05T06:24:17;23.10;52.50
32728;DHT22;55292;51.844;19.246;2023-06-05T06:29:24;22.30;53.30
32728;DHT22;55292;51.844;19.246;2023-06-05T06:34:28;22.10;55.60
32728;DHT22;55292;51.844;19.246;2023-06-05T06:39:31;22.10;57.10
32728;DHT22;55292;51.844;19.246;2023-06-05T06:44:34;22.10;55.20
32728;DHT22;55292;51.844;19.246;2023-06-05T06:49:36;22.10;57.50
32728;DHT22;55292;51.844;19.246;2023-06-05T06:54:39;22.20;55.30
32728;DHT22;55292;51.844;19.246;2023-06-05T06:59:42;22.30;56.20
32728;DHT22;55292;51.844;19.246;2023-06-05T07:04:45;22.10;54.60
32728;DHT22;55292;51.844;19.246;2023-06-05T07:15:53;22.00;52.60
32728;DHT22;55292;51.844;19.246;2023-06-05T07:20:56;21.70;50.70
32728;DHT22;55292;51.844;19.246;2023-06-05T07:26:00;21.70;51.20
32728;DHT22;55292;51.844;19.246;2023-06-05T07:31:02;21.70;49.20
32728;DHT22;55292;51.844;19.246;2023-06-05T07:36:05;21.70;52.60
32728;DHT22;55292;51.844;19.246;2023-06-05T07:41:10;22.00;51.90
32728;DHT22;55292;51.844;19.246;2023-06-05T07:46:13;21.90;53.00
32728;DHT22;55292;51.844;19.246;2023-06-05T07:51:18;22.20;52.20
32728;DHT22;55292;51.844;19.246;2023-06-05T07:56:21;21.90;50.00
32728;DHT22;55292;51.844;19.246;2023-06-05T08:01:27;21.90;51.60
32728;DHT22;55292;51.844;19.246;2023-06-05T08:06:30;22.40;50.50
32728;DHT22;55292;51.844;19.246;2023-06-05T08:11:33;22.60;51.70
32728;DHT22;55292;51.844;19.246;2023-06-05T08:16:35;22.90;50.70
32728;DHT22;55292;51.844;19.246;2023-06-05T08:21:38;22.90;50.10
32728;DHT22;55292;51.844;19.246;2023-06-05T08:26:41;22.90;50.10
32728;DHT22;55292;51.844;19.246;2023-06-05T08:31:43;23.10;47.30
32728;DHT22;55292;51.844;19.246;2023-06-05T08:36:46;23.00;47.70
32728;DHT22;55292;51.844;19.246;2023-06-05T08:41:50;23.20;50.70
32728;DHT22;55292;51.844;19.246;2023-06-05T08:47:00;23.50;49.80
32728;DHT22;55292;51.844;19.246;2023-06-05T08:52:06;23.60;48.50
32728;DHT22;55292;51.844;19.246;2023-06-05T08:57:09;23.60;48.70
32728;DHT22;55292;51.844;19.246;2023-06-05T09:02:13;23.30;46.80
32728;DHT22;55292;51.844;19.246;2023-06-05T09:07:15;22.80;48.30
32728;DHT22;55292;51.844;19.246;2023-06-05T09:12:18;22.50;48.80
32728;DHT22;55292;51.844;19.246;2023-06-05T09:17:21;22.90;49.70
32728;DHT22;55292;51.844;19.246;2023-06-05T09:22:34;22.80;48.20
32728;DHT22;55292;51.844;19.246;2023-06-05T09:27:37;22.70;50.50
32728;DHT22;55292;51.844;19.246;2023-06-05T09:32:41;22.80;49.80
32728;DHT22;55292;51.844;19.246;2023-06-05T09:37:43;22.50;47.80
32728;DHT22;55292;51.844;19.246;2023-06-05T09:42:49;22.60;51.00
32728;DHT22;55292;51.844;19.246;2023-06-05T09:47:51;22.90;48.70
32728;DHT22;55292;51.844;19.246;2023-06-05T09:52:56;23.20;49.20
32728;DHT22;55292;51.844;19.246;2023-06-05T09:57:59;22.80;49.10
32728;DHT22;55292;51.844;19.246;2023-06-05T10:03:15;22.70;49.50
32728;DHT22;55292;51.844;19.246;2023-06-05T10:08:19;23.10;48.30
32728;DHT22;55292;51.844;19.246;2023-06-05T10:13:22;23.00;48.10
32728;DHT22;55292;51.844;19.246;2023-06-05T10:18:25;22.70;51.10
32728;DHT22;55292;51.844;19.246;2023-06-05T10:23:28;22.70;49.60
32728;DHT22;55292;51.844;19.246;2023-06-05T10:38:58;22.70;49.80
32728;DHT22;55292;51.844;19.246;2023-06-05T10:44:03;23.10;51.10
32728;DHT22;55292;51.844;19.246;2023-06-05T10:49:17;23.30;47.70
32728;DHT22;55292;51.844;19.246;2023-06-05T10:59:33;23.50;50.00
32728;DHT22;55292;51.844;19.246;2023-06-05T11:10:05;23.50;45.80
32728;DHT22;55292;51.844;19.246;2023-06-05T11:15:12;24.10;47.30
32728;DHT22;55292;51.844;19.246;2023-06-05T11:25:28;23.60;47.30
32728;DHT22;55292;51.844;19.246;2023-06-05T11:30:42;23.60;47.00
32728;DHT22;55292;51.844;19.246;2023-06-05T11:35:51;23.50;47.80
32728;DHT22;55292;51.844;19.246;2023-06-05T11:40:56;23.50;47.40
32728;DHT22;55292;51.844;19.246;2023-06-05T11:45:59;23.50;46.00
32728;DHT22;55292;51.844;19.246;2023-06-05T11:51:04;23.40;46.40
32728;DHT22;55292;51.844;19.246;2023-06-05T11:56:15;23.60;48.80
32728;DHT22;55292;51.844;19.246;2023-06-05T12:01:20;24.10;46.70
32728;DHT22;55292;51.844;19.246;2023-06-05T12:06:28;23.80;47.00
32728;DHT22;55292;51.844;19.246;2023-06-05T12:11:32;23.70;46.30
32728;DHT22;55292;51.844;19.246;2023-06-05T12:16:39;23.70;47.30
32728;DHT22;55292;51.844;19.246;2023-06-05T12:21:44;23.70;46.80
32728;DHT22;55292;51.844;19.246;2023-06-05T12:26:51;23.60;46.30
32728;DHT22;55292;51.844;19.246;2023-06-05T12:31:57;23.70;46.20
32728;DHT22;55292;51.844;19.246;2023-06-05T12:37:00;23.80;47.30
32728;DHT22;55292;51.844;19.246;2023-06-05T12:42:03;24.10;46.60
32728;DHT22;55292;51.844;19.246;2023-06-05T12:47:06;24.20;46.80
32728;DHT22;55292;51.844;19.246;2023-06-05T12:52:09;24.00;47.20
32728;DHT22;55292;51.844;19.246;2023-06-05T12:57:11;24.10;48.50
32728;DHT22;55292;51.844;19.246;2023-06-05T13:02:15;24.40;49.70
32728;DHT22;55292;51.844;19.246;2023-06-05T13:07:18;24.70;49.30
32728;DHT22;55292;51.844;19.246;2023-06-05T13:12:20;24.10;46.80
32728;DHT22;55292;51.844;19.246;2023-06-05T13:17:23;23.70;47.00
32728;DHT22;55292;51.844;19.246;2023-06-05T13:22:26;23.90;46.90
32728;DHT22;55292;51.844;19.246;2023-06-05T13:27:29;24.10;47.30
32728;DHT22;55292;51.844;19.246;2023-06-05T13:32:35;23.70;47.80
32728;DHT22;55292;51.844;19.246;2023-06-05T13:37:39;23.90;47.70
32728;DHT22;55292;51.844;19.246;2023-06-05T13:42:43;24.30;49.70
32728;DHT22;55292;51.844;19.246;2023-06-05T13:47:45;24.20;47.50
32728;DHT22;55292;51.844;19.246;2023-06-05T13:52:49;24.30;48.70
32728;DHT22;55292;51.844;19.246;2023-06-05T13:57:52;24.10;47.30
32728;DHT22;55292;51.844;19.246;2023-06-05T14:02:55;24.00;47.80
32728;DHT22;55292;51.844;19.246;2023-06-05T14:07:58;24.20;47.40
32728;DHT22;55292;51.844;19.246;2023-06-05T14:13:00;24.10;47.80
32728;DHT22;55292;51.844;19.246;2023-06-05T14:18:05;24.20;48.10
32728;DHT22;55292;51.844;19.246;2023-06-05T14:23:07;24.00;46.20
32728;DHT22;55292;51.844;19.246;2023-06-05T14:28:11;24.00;46.30
32728;DHT22;55292;51.844;19.246;2023-06-05T14:33:13;25.70;48.50
32728;DHT22;55292;51.844;19.246;2023-06-05T14:38:17;23.90;46.80
32728;DHT22;55292;51.844;19.246;2023-06-05T14:43:19;23.90;46.80
32728;DHT22;55292;51.844;19.246;2023-06-05T14:48:27;24.10;47.50
32728;DHT22;55292;51.844;19.246;2023-06-05T14:53:29;24.10;48.30
32728;DHT22;55292;51.844;19.246;2023-06-05T14:58:34;24.10;46.50
32728;DHT22;55292;51.844;19.246;2023-06-05T15:03:37;24.10;46.80
32728;DHT22;55292;51.844;19.246;2023-06-05T15:08:40;24.00;47.70
32728;DHT22;55292;51.844;19.246;2023-06-05T15:13:42;24.00;49.20
32728;DHT22;55292;51.844;19.246;2023-06-05T15:18:46;24.00;48.70
32728;DHT22;55292;51.844;19.246;2023-06-05T15:23:49;24.10;47.50
32728;DHT22;55292;51.844;19.246;2023-06-05T15:28:51;24.10;47.90
32728;DHT22;55292;51.844;19.246;2023-06-05T15:33:54;24.00;46.80
32728;DHT22;55292;51.844;19.246;2023-06-05T15:38:57;23.90;47.80
32728;DHT22;55292;51.844;19.246;2023-06-05T15:44:00;23.80;48.60
32728;DHT22;55292;51.844;19.246;2023-06-05T15:49:03;23.90;48.70
32728;DHT22;55292;51.844;19.246;2023-06-05T15:54:05;23.90;49.60
32728;DHT22;55292;51.844;19.246;2023-06-05T15:59:16;23.70;47.90
32728;DHT22;55292;51.844;19.246;2023-06-05T16:04:19;23.60;48.70
32728;DHT22;55292;51.844;19.246;2023-06-05T16:09:21;23.50;48.30
32728;DHT22;55292;51.844;19.246;2023-06-05T16:14:24;23.50;48.90
32728;DHT22;55292;51.844;19.246;2023-06-05T16:19:28;23.50;50.50
32728;DHT22;55292;51.844;19.246;2023-06-05T16:24:31;23.50;49.70
32728;DHT22;55292;51.844;19.246;2023-06-05T16:29:35;23.40;49.80
32728;DHT22;55292;51.844;19.246;2023-06-05T16:34:38;23.30;50.90
32728;DHT22;55292;51.844;19.246;2023-06-05T16:39:42;23.30;50.70
32728;DHT22;55292;51.844;19.246;2023-06-05T16:44:47;23.10;51.70
32728;DHT22;55292;51.844;19.246;2023-06-05T16:49:49;23.10;51.70
32728;DHT22;55292;51.844;19.246;2023-06-05T16:54:52;23.80;50.50
32728;DHT22;55292;51.844;19.246;2023-06-05T16:59:55;24.20;50.60
32728;DHT22;55292;51.844;19.246;2023-06-05T17:04:57;24.20;48.80
32728;DHT22;55292;51.844;19.246;2023-06-05T17:10:01;24.20;48.50
32728;DHT22;55292;51.844;19.246;2023-06-05T17:15:05;24.40;49.40
32728;DHT22;55292;51.844;19.246;2023-06-05T17:20:08;24.30;49.30
32728;DHT22;55292;51.844;19.246;2023-06-05T17:25:11;24.20;49.70
32728;DHT22;55292;51.844;19.246;2023-06-05T17:30:13;24.00;49.90
32728;DHT22;55292;51.844;19.246;2023-06-05T17:35:17;23.70;50.10
32728;DHT22;55292;51.844;19.246;2023-06-05T17:40:21;23.70;51.00
32728;DHT22;55292;51.844;19.246;2023-06-05T17:45:24;23.50;51.30
32728;DHT22;55292;51.844;19.246;2023-06-05T17:50:29;22.50;52.60
32728;DHT22;55292;51.844;19.246;2023-06-05T17:55:31;21.80;55.10
32728;DHT22;55292;51.844;19.246;2023-06-05T18:00:34;21.50;55.70
32728;DHT22;55292;51.844;19.246;2023-06-05T18:05:39;21.50;55.80
32728;DHT22;55292;51.844;19.246;2023-06-05T18:10:42;20.90;56.50
32728;DHT22;55292;51.844;19.246;2023-06-05T18:15:45;20.40;57.80
32728;DHT22;55292;51.844;19.246;2023-06-05T18:20:48;19.90;59.10
32728;DHT22;55292;51.844;19.246;2023-06-05T18:25:51;19.60;59.90
32728;DHT22;55292;51.844;19.246;2023-06-05T18:30:54;19.40;60.80
32728;DHT22;55292;51.844;19.246;2023-06-05T18:35:57;19.10;61.70
32728;DHT22;55292;51.844;19.246;2023-06-05T18:41:00;18.80;62.70
32728;DHT22;55292;51.844;19.246;2023-06-05T18:46:04;18.40;64.10
32728;DHT22;55292;51.844;19.246;2023-06-05T18:51:07;18.20;65.30
32728;DHT22;55292;51.844;19.246;2023-06-05T18:56:10;17.90;65.80
32728;DHT22;55292;51.844;19.246;2023-06-05T19:01:14;17.70;66.60
32728;DHT22;55292;51.844;19.246;2023-06-05T19:06:17;17.60;66.90
32728;DHT22;55292;51.844;19.246;2023-06-05T19:11:21;17.40;67.70
32728;DHT22;55292;51.844;19.246;2023-06-05T19:16:24;17.10;68.70
32728;DHT22;55292;51.844;19.246;2023-06-05T19:21:27;17.00;69.60
32728;DHT22;55292;51.844;19.246;2023-06-05T19:26:29;16.60;71.00
32728;DHT22;55292;51.844;19.246;2023-06-05T19:31:32;16.60;71.30
32728;DHT22;55292;51.844;19.246;2023-06-05T19:36:38;16.50;71.80
32728;DHT22;55292;51.844;19.246;2023-06-05T19:41:42;16.10;73.60
32728;DHT22;55292;51.844;19.246;2023-06-05T19:46:45;16.20;73.00
32728;DHT22;55292;51.844;19.246;2023-06-05T19:51:48;16.10;73.80
32728;DHT22;55292;51.844;19.246;2023-06-05T19:56:51;17.60;75.70
32728;DHT22;55292;51.844;19.246;2023-06-05T20:01:54;15.80;75.40
32728;DHT22;55292;51.844;19.246;2023-06-05T20:06:57;15.60;76.40
32728;DHT22;55292;51.844;19.246;2023-06-05T20:12:01;15.50;76.90
32728;DHT22;55292;51.844;19.246;2023-06-05T20:17:05;15.20;79.20
32728;DHT22;55292;51.844;19.246;2023-06-05T20:22:10;14.90;80.70
32728;DHT22;55292;51.844;19.246;2023-06-05T20:27:13;14.40;85.50
32728;DHT22;55292;51.844;19.246;2023-06-05T20:32:18;14.20;88.30
32728;DHT22;55292;51.844;19.246;2023-06-05T20:37:20;14.00;90.40
32728;DHT22;55292;51.844;19.246;2023-06-05T20:42:33;13.70;93.00
32728;DHT22;55292;51.844;19.246;2023-06-05T20:47:36;13.10;99.70
32728;DHT22;55292;51.844;19.246;2023-06-05T20:52:42;12.90;99.90
32728;DHT22;55292;51.844;19.246;2023-06-05T20:57:45;12.60;99.90
32728;DHT22;55292;51.844;19.246;2023-06-05T21:02:48;12.60;99.90
32728;DHT22;55292;51.844;19.246;2023-06-05T21:07:51;13.00;99.90
32728;DHT22;55292;51.844;19.246;2023-06-05T21:12:54;12.70;99.90
32728;DHT22;55292;51.844;19.246;2023-06-05T21:17:56;12.80;99.90
32728;DHT22;55292;51.844;19.246;2023-06-05T21:22:59;13.20;99.90
32728;DHT22;55292;51.844;19.246;2023-06-05T21:28:02;13.20;99.90
32728;DHT22;55292;51.844;19.246;2023-06-05T21:33:04;13.40;99.90
32728;DHT22;55292;51.844;19.246;2023-06-05T21:38:07;13.50;99.90
32728;DHT22;55292;51.844;19.246;2023-06-05T21:43:10;13.50;99.90
32728;DHT22;55292;51.844;19.246;2023-06-05T21:48:13;13.40;99.90
32728;DHT22;55292;51.844;19.246;2023-06-05T21:53:15;13.40;99.90
32728;DHT22;55292;51.844;19.246;2023-06-05T21:58:18;13.30;99.90
32728;DHT22;55292;51.844;19.246;2023-06-05T22:03:21;13.20;99.90
32728;DHT22;55292;51.844;19.246;2023-06-05T22:08:24;13.00;99.90
32728;DHT22;55292;51.844;19.246;2023-06-05T22:13:28;13.10;99.90
32728;DHT22;55292;51.844;19.246;2023-06-05T22:18:31;13.10;99.90
32728;DHT22;55292;51.844;19.246;2023-06-05T22:23:34;13.30;99.90
32728;DHT22;55292;51.844;19.246;2023-06-05T22:28:37;13.20;99.90
32728;DHT22;55292;51.844;19.246;2023-06-05T22:33:40;13.00;99.90
32728;DHT22;55292;51.844;19.246;2023-06-05T22:38:42;12.90;99.90
32728;DHT22;55292;51.844;19.246;2023-06-05T22:43:45;12.90;99.90
32728;DHT22;55292;51.844;19.246;2023-06-05T22:48:48;12.70;99.90
32728;DHT22;55292;51.844;19.246;2023-06-05T22:53:51;12.30;99.90
32728;DHT22;55292;51.844;19.246;2023-06-05T22:58:54;12.50;99.90
32728;DHT22;55292;51.844;19.246;2023-06-05T23:03:57;12.50;99.90
32728;DHT22;55292;51.844;19.246;2023-06-05T23:08:59;12.60;99.90
32728;DHT22;55292;51.844;19.246;2023-06-05T23:14:03;11.80;99.90
32728;DHT22;55292;51.844;19.246;2023-06-05T23:19:05;11.20;99.90
32728;DHT22;55292;51.844;19.246;2023-06-05T23:24:08;10.80;99.90
32728;DHT22;55292;51.844;19.246;2023-06-05T23:29:11;11.10;99.90
32728;DHT22;55292;51.844;19.246;2023-06-05T23:34:14;11.40;99.90
32728;DHT22;55292;51.844;19.246;2023-06-05T23:39:17;11.30;99.90
32728;DHT22;55292;51.844;19.246;2023-06-05T23:44:21;11.30;99.90
32728;DHT22;55292;51.844;19.246;2023-06-05T23:49:23;11.30;99.90
32728;DHT22;55292;51.844;19.246;2023-06-05T23:54:26;11.20;99.90
32728;DHT22;55292;51.844;19.246;2023-06-05T23:59:29;11.50;99.90
